Aeroporto :
LOGIN :

Iscrizione | Disclaimer

   EN    FR    IT 

 










Sommario :    VFR   VFR Marginale   IFR   IFR Intensivo   IFR Molto Intensivo
Visibilità : 
Base nubi : 
>= 8 km
>= 3000ft
5 / 8 km
1000 / 3000 ft
1500m / 5 km
500 / 1000 ft
800 / 1500m
200 / 500 ft
< 800m
< 200 ft
Simboli :   Temporali  Nebbia  Neve Forte  Precipitazioni Forti  Vento > 20 kt
SIGMETs :   Varie  Temporali  Ghiacco  Turbolenza  Onda orograficha  Ceneri Vulcaniche






- Altitudine del aeroporto : 32 ft
- Codice IATA : LKZ


EGUL - RAF Lakenheath

ULTIMO METAR :
  • 311323Z AUTO 17017G23KT 9999 SCT014 BKN020 14/14 A2964 RMK AO2 RAB1258E03DZB03E13 CIG 015V020 PRESFR SLPNO $

METARs OBSOLETI :
  • 311258Z AUTO 17016G23KT 9999 -RA OVC015 14/14 A2967 RMK AO2 RAB58 SLPNO $
  • 311241Z AUTO 19013G25KT 9999 RA BKN014 OVC021 14/14 A2968 RMK AO2 RAB1156E22RAB25E38RAB41 CIG 014V018 SLP054 $
  • 311230Z AUTO 17014G25KT 9999 -RA BKN018 OVC023 15/15 A2968 RMK AO2 RAB1156E22RAB25 CIG 018V026 SLP054 $
  • 311202Z AUTO 17017G25KT 9999 -RA FEW021 BKN028 BKN040 15/15 A2969 RMK AO2 RAB1156 CIG 028V040 SLP057 $
  • 311156Z AUTO 17018G25KT 9999 SCT025 SCT031 BKN040 15/15 A2969 RMK AO2 PK WND 16030/09 SLP057 7//// T01530150 10156 20135 57041 $
  • 311101Z AUTO 16018G28KT 9999 SCT019 15/15 A2972 RMK AO2 SLP068 $
  • 311056Z AUTO 17018G25KT 9999 BKN020 15/15 A2972 RMK AO2 PK WND 17028/16 PRESFR SLP068 T01500147 $
  • 311031Z AUTO 16014G24KT 9999 BKN021 15/14 A2975 RMK AO2 BKN V SCT SLP078 $

TAF TAF EGUL
Valido dal 31 a 12 ore il 01 a 18 ore UTC


311200Z 3112/0118 17025G35KT 8000 -SHRA BKN020 510003 QNH2965INS
TEMPO 3112/3116 18030G40KT 3200 SHRA BKN010 OVC020 520005
BECMG 3116/3117 24015G25KT 9999 NSW SCT025 QNH2977INS
BECMG 3119/3120 21012G18KT 9999 SCT030 QNH2957INS
BECMG 0105/0106 18015G20KT 8000 -SHRA BKN020 QNH2945INS
TEMPO 0107/0110 19020G25KT BKN010 TX16/3112Z TN08/0102Z



MetMap, La meteo Aeronautica in un colpo d'occhio ! - Copyright ORBIFLY Dicembre 2007 - Disclaimer

ORBIFLY MET'MAP TEAM :

Programmazione e sviluppo : Alexandra Zaïnal
Concezione : Baudouin d'Aumeries
Aiuto per la programmazione : Marc-Olivier Méhu
Supporto tecnico e logistico : Manuel Goepfert
Aiuto per la traduzione : Arnaldo La Scala

Contatto : metmap@orbifly.com




FONTI E CREDITI :

   NOAA